»·PEaware :: N39921 KSAN-KSBA

N39921 :: KSAN-KSBA

FLIGHT INFORMATION

Flight Status: Arrived
Operator: Privately registered:
United States
More flights under this callsign
Pilot: Nickolaus B. (17683)
Aircraft: PIPER PA-32 SARATOGA
(PA32)
More flights by this aircraft type
Origin: KSAN San Diego Intl-Lindbergh
United States
Destination: KSBA Santa Barbara Mun
United States
More flights between these airports :: More routes between these airports
Route: OCN V23 LAX V299 VTU VTU282R KWANG
File this flight plan on PilotEdge
Remarks: TEC route SANP35
Altitude:
(Current/Filed)
6,000ft
Speed:
(Current/Filed)
160kts
Departed: 28-Jan-19 08:46 PM
Arrived: 28-Jan-19 09:53 PM
Distance/Time
Traveled:
167nm/1:07
Distance/Time
To Go:
Arrived

Flight Plot

Page will automatically refresh every two minutes.


Map Options




Map Legend


Flown Route
Filed Route
Departure Airport
Arrival Airport
Navaid (VOR, NDB)
Fix

Horizontal Profiles

Position Reports

Time Latitude Longitude Heading Altitude Ground
Speed
28-Jan-19 20:34 32.732420 -117.176641 194 21ft 0kts
28-Jan-19 20:35 32.732420 -117.176641 194 21ft 0kts
28-Jan-19 20:36 32.732420 -117.176641 194 21ft 0kts
28-Jan-19 20:37 32.732420 -117.176641 194 21ft 0kts
28-Jan-19 20:38 32.732420 -117.176641 194 21ft 0kts
28-Jan-19 20:39 32.732420 -117.176641 194 21ft 0kts
28-Jan-19 20:40 32.732420 -117.176641 194 21ft 0kts
28-Jan-19 20:41 32.731451 -117.176688 141 20ft 5kts
28-Jan-19 20:42 32.730965 -117.175532 134 21ft 0kts
28-Jan-19 20:43 32.730965 -117.175532 134 21ft 0kts
28-Jan-19 20:44 32.730326 -117.176388 288 20ft 35kts
28-Jan-19 20:45 32.743475 -117.206882 321 508ft 143kts
28-Jan-19 20:46 32.774483 -117.234233 322 1783ft 130kts
28-Jan-19 20:47 32.801272 -117.257721 322 3219ft 110kts
28-Jan-19 20:49 32.828052 -117.269315 343 4649ft 97kts
28-Jan-19 20:50 32.853427 -117.278102 342 5939ft 98kts
28-Jan-19 20:51 32.889725 -117.290902 343 5998ft 158kts
28-Jan-19 20:52 32.933956 -117.306625 343 5994ft 171kts
28-Jan-19 20:53 32.980038 -117.323108 343 5991ft 173kts
28-Jan-19 20:54 33.026223 -117.339666 343 5990ft 173kts
28-Jan-19 20:55 33.072370 -117.356233 343 5990ft 172kts
28-Jan-19 20:56 33.116428 -117.372068 343 6000ft 172kts
28-Jan-19 20:57 33.163413 -117.388985 343 6000ft 172kts
28-Jan-19 20:58 33.209372 -117.405544 343 6000ft 172kts
28-Jan-19 20:59 33.251093 -117.429900 317 5999ft 175kts
28-Jan-19 21:00 33.286696 -117.470242 314 5999ft 177kts
28-Jan-19 21:01 33.322082 -117.511382 314 5999ft 177kts
28-Jan-19 21:02 33.355142 -117.549885 314 5999ft 177kts
28-Jan-19 21:03 33.389836 -117.590403 316 6018ft 173kts
28-Jan-19 21:04 33.424175 -117.630476 316 6017ft 172kts
28-Jan-19 21:04 33.452650 -117.663764 315 6015ft 172kts
28-Jan-19 21:06 33.492495 -117.710416 314 6012ft 171kts
28-Jan-19 21:07 33.526398 -117.750204 314 6003ft 172kts
28-Jan-19 21:08 33.560584 -117.790363 314 6000ft 172kts
28-Jan-19 21:08 33.589108 -117.823890 313 6000ft 172kts
28-Jan-19 21:09 33.623273 -117.864092 313 6000ft 172kts
28-Jan-19 21:11 33.663309 -117.911262 313 6000ft 173kts
28-Jan-19 21:12 33.697694 -117.951823 313 6000ft 173kts
28-Jan-19 21:12 33.726364 -117.985676 313 6000ft 173kts
28-Jan-19 21:13 33.760694 -118.026258 313 6000ft 173kts
28-Jan-19 21:14 33.788000 -118.072416 288 5999ft 172kts
28-Jan-19 21:15 33.802739 -118.127292 286 5999ft 171kts
28-Jan-19 21:16 33.816790 -118.182090 286 6001ft 171kts
28-Jan-19 21:17 33.830773 -118.237002 286 6003ft 171kts
28-Jan-19 21:18 33.844697 -118.291907 286 6003ft 170kts
28-Jan-19 21:19 33.858977 -118.346186 300 5992ft 171kts
28-Jan-19 21:20 33.892696 -118.386442 316 5999ft 171kts
28-Jan-19 21:21 33.927992 -118.424510 316 5999ft 172kts
28-Jan-19 21:22 33.948273 -118.476233 291 5998ft 171kts
28-Jan-19 21:23 33.965649 -118.529828 290 5999ft 171kts
28-Jan-19 21:24 33.982847 -118.583634 290 5999ft 171kts
28-Jan-19 21:25 33.999968 -118.637392 290 6000ft 171kts
28-Jan-19 21:26 34.016823 -118.690397 290 6002ft 171kts
28-Jan-19 21:27 34.033917 -118.744261 290 6004ft 171kts
28-Jan-19 21:28 34.049384 -118.798467 287 6006ft 170kts
28-Jan-19 21:29 34.063929 -118.852501 287 6007ft 170kts
28-Jan-19 21:30 34.078546 -118.907099 288 6008ft 169kts
28-Jan-19 21:31 34.093085 -118.961504 288 6007ft 169kts
28-Jan-19 21:32 34.107490 -119.015522 288 6007ft 169kts
28-Jan-19 21:33 34.124761 -119.068268 296 6006ft 169kts
28-Jan-19 21:34 34.146007 -119.119239 297 6004ft 169kts
28-Jan-19 21:35 34.167229 -119.169845 297 6002ft 170kts
28-Jan-19 21:36 34.188660 -119.220972 297 6019ft 170kts
28-Jan-19 21:37 34.210220 -119.272484 297 6018ft 171kts
28-Jan-19 21:38 34.231459 -119.324512 296 6018ft 172kts
28-Jan-19 21:39 34.252754 -119.376428 297 6017ft 172kts
28-Jan-19 21:40 34.274304 -119.428198 297 6016ft 172kts
28-Jan-19 21:41 34.295783 -119.479850 297 6013ft 171kts
28-Jan-19 21:42 34.320971 -119.528252 310 5910ft 173kts
28-Jan-19 21:43 34.350688 -119.572086 309 5409ft 160kts
28-Jan-19 21:44 34.377210 -119.610847 309 4557ft 133kts
28-Jan-19 21:45 34.398454 -119.642210 307 3396ft 111kts
28-Jan-19 21:46 34.416691 -119.670133 304 2241ft 101kts
28-Jan-19 21:47 34.431779 -119.702281 292 1504ft 121kts
28-Jan-19 21:48 34.430007 -119.742089 263 1121ft 112kts
28-Jan-19 21:49 34.428999 -119.778292 268 700ft 96kts
28-Jan-19 21:50 34.428377 -119.809059 269 409ft 88kts
28-Jan-19 21:51 34.427833 -119.838286 267 16ft 72kts
28-Jan-19 21:52 34.428269 -119.846005 55 13ft 5kts

Navigation Log

Ident Type
Flight plan parsing failed, navigation log unavailable